createdAt,value
2019-05-21T00:00:49.366Z,13.60
2019-05-21T00:03:17.749Z,14.13
2019-05-21T00:05:46.131Z,14.87
2019-05-21T00:08:14.545Z,14.60
2019-05-21T00:10:42.951Z,15.20
2019-05-21T00:13:11.354Z,16.20
2019-05-21T00:15:39.728Z,15.80
2019-05-21T00:18:08.144Z,15.10
2019-05-21T00:20:36.563Z,16.27
2019-05-21T00:23:04.962Z,15.33
2019-05-21T00:25:33.383Z,15.63
2019-05-21T00:28:33.685Z,18.10
2019-05-21T00:31:38.532Z,18.20
2019-05-21T00:34:44.403Z,19.27
2019-05-21T00:37:49.858Z,19.17
2019-05-21T00:40:55.172Z,16.97
2019-05-21T00:43:44.811Z,15.93
2019-05-21T00:46:13.215Z,14.67
2019-05-21T00:48:41.596Z,17.13
2019-05-21T00:51:10.007Z,17.70
2019-05-21T00:53:38.468Z,17.77
2019-05-21T00:56:06.824Z,19.07
2019-05-21T00:58:35.246Z,17.70
2019-05-21T01:01:03.628Z,18.50
2019-05-21T01:03:32.051Z,17.33
2019-05-21T01:06:00.465Z,14.77
2019-05-21T01:08:28.892Z,16.40
2019-05-21T01:10:57.280Z,14.10
2019-05-21T01:13:25.699Z,14.90
2019-05-21T01:15:54.089Z,16.63
2019-05-21T01:18:22.500Z,14.50
2019-05-21T01:20:50.933Z,15.43
2019-05-21T01:23:19.308Z,14.40
2019-05-21T01:25:47.706Z,13.63
2019-05-21T01:28:16.120Z,15.57
2019-05-21T01:30:44.536Z,14.87
2019-05-21T01:33:12.932Z,15.50
2019-05-21T01:35:41.328Z,14.43
2019-05-21T01:38:09.754Z,16.23
2019-05-21T01:40:38.169Z,14.57
2019-05-21T01:43:06.572Z,13.43
2019-05-21T01:45:34.973Z,13.03
2019-05-21T01:48:03.379Z,13.60
2019-05-21T01:50:31.774Z,13.50
2019-05-21T01:53:00.188Z,12.27
2019-05-21T01:55:28.576Z,11.80
2019-05-21T01:57:56.977Z,12.37
2019-05-21T02:00:25.389Z,10.97
2019-05-21T02:02:53.798Z,10.83
2019-05-21T02:05:32.618Z,11.17
2019-05-21T02:07:52.336Z,11.70
2019-05-21T02:10:21.016Z,11.27
2019-05-21T02:12:49.405Z,13.13
2019-05-21T02:15:17.962Z,13.63
2019-05-21T02:17:46.352Z,12.83
2019-05-21T02:20:14.764Z,12.83
2019-05-21T02:22:43.181Z,15.07
2019-05-21T02:25:11.574Z,15.70
2019-05-21T02:27:40.015Z,16.47
2019-05-21T02:30:09.970Z,17.63
2019-05-21T02:32:38.427Z,15.83
2019-05-21T02:35:06.898Z,14.77
2019-05-21T02:37:35.385Z,12.80
2019-05-21T02:40:04.928Z,13.00
2019-05-21T02:42:33.371Z,14.07
2019-05-21T02:45:01.840Z,11.97
2019-05-21T02:47:30.353Z,11.20
2019-05-21T02:49:58.760Z,11.40
2019-05-21T02:52:27.160Z,10.87
2019-05-21T02:54:55.582Z,11.13
2019-05-21T02:57:25.634Z,12.10
2019-05-21T02:59:55.750Z,11.27
2019-05-21T03:02:25.798Z,10.73
2019-05-21T03:04:54.183Z,11.73
2019-05-21T03:07:42.003Z,12.67
2019-05-21T03:10:10.393Z,11.27
2019-05-21T03:12:38.835Z,10.83
2019-05-21T03:15:07.221Z,10.43
2019-05-21T03:17:35.644Z,11.23
2019-05-21T03:20:07.531Z,11.47
2019-05-21T03:22:35.915Z,11.70
2019-05-21T03:25:04.772Z,10.60
2019-05-21T03:27:33.120Z,11.67
2019-05-21T03:30:01.525Z,12.73
2019-05-21T03:32:29.919Z,12.33
2019-05-21T03:34:58.340Z,12.03
2019-05-21T03:37:26.748Z,12.50
2019-05-21T03:39:55.164Z,13.13
2019-05-21T03:42:23.588Z,15.97
2019-05-21T03:44:59.774Z,16.70
2019-05-21T03:47:22.930Z,18.27
2019-05-21T03:49:51.329Z,19.30
2019-05-21T03:52:19.792Z,19.67
2019-05-21T03:54:48.156Z,20.93
2019-05-21T03:57:16.583Z,20.90
2019-05-21T03:59:45.013Z,20.20
2019-05-21T04:02:13.393Z,19.77
2019-05-21T04:04:41.822Z,20.63
2019-05-21T04:07:10.202Z,17.53
2019-05-21T04:09:38.611Z,20.93
2019-05-21T04:12:07.061Z,19.40
2019-05-21T04:14:39.803Z,22.20
2019-05-21T04:17:19.137Z,21.77
2019-05-21T04:19:48.724Z,21.13
2019-05-21T04:22:17.294Z,21.27
2019-05-21T04:24:45.961Z,19.97
2019-05-21T04:27:14.550Z,19.60
2019-05-21T04:29:43.124Z,20.37
2019-05-21T04:32:11.516Z,21.57
2019-05-21T04:34:39.944Z,21.97
2019-05-21T04:37:11.409Z,22.60
2019-05-21T04:39:38.391Z,22.00
2019-05-21T04:42:06.754Z,22.20
2019-05-21T04:44:35.162Z,20.17
2019-05-21T04:47:03.593Z,21.07
2019-05-21T04:49:32.008Z,22.27
2019-05-21T04:52:00.419Z,20.27
2019-05-21T04:54:28.803Z,17.00
2019-05-21T04:56:57.220Z,19.00
2019-05-21T04:59:25.613Z,19.27
2019-05-21T05:01:54.044Z,20.30
2019-05-21T05:04:22.475Z,21.93
2019-05-21T05:06:50.896Z,19.63
2019-05-21T05:09:19.289Z,21.97
2019-05-21T05:11:47.689Z,20.90
2019-05-21T05:14:16.259Z,21.80
2019-05-21T05:16:44.665Z,19.87
2019-05-21T05:19:13.169Z,19.60
2019-05-21T05:21:41.583Z,21.97
2019-05-21T05:24:09.965Z,18.77
2019-05-21T05:26:38.351Z,17.07
2019-05-21T05:29:08.402Z,19.53
2019-05-21T05:31:36.848Z,20.13
2019-05-21T05:34:05.229Z,20.40
2019-05-21T05:36:33.632Z,20.03
2019-05-21T05:39:02.034Z,19.57
2019-05-21T05:41:30.431Z,20.20
2019-05-21T05:43:58.860Z,22.10
2019-05-21T05:46:27.260Z,21.43
2019-05-21T05:48:57.320Z,22.00
2019-05-21T05:51:25.706Z,22.17
2019-05-21T05:53:57.326Z,20.93
2019-05-21T05:56:29.527Z,21.00
2019-05-21T05:59:00.885Z,18.83
2019-05-21T06:01:31.040Z,19.77
2019-05-21T06:03:59.458Z,19.33
2019-05-21T06:06:27.871Z,17.33
2019-05-21T06:08:56.272Z,18.63
2019-05-21T06:11:24.689Z,18.40
2019-05-21T06:13:53.143Z,18.17
2019-05-21T06:16:21.581Z,17.77
2019-05-21T06:18:49.988Z,17.80
2019-05-21T06:21:18.382Z,17.83
2019-05-21T06:23:46.806Z,16.10
2019-05-21T06:26:15.201Z,17.43
2019-05-21T06:28:43.609Z,17.27
2019-05-21T06:31:12.012Z,16.80
2019-05-21T06:33:40.441Z,18.63
2019-05-21T06:36:09.009Z,17.80
2019-05-21T06:38:37.424Z,18.73
2019-05-21T06:41:05.926Z,19.33
2019-05-21T06:43:34.382Z,20.57
2019-05-21T06:46:02.794Z,20.83
2019-05-21T06:48:31.194Z,18.47
2019-05-21T06:50:59.614Z,17.20
2019-05-21T06:53:28.020Z,17.10
2019-05-21T06:55:56.430Z,15.80
2019-05-21T06:58:24.832Z,15.20
2019-05-21T07:00:53.289Z,16.10
2019-05-21T07:03:21.750Z,16.80
2019-05-21T07:05:58.968Z,14.93
2019-05-21T07:08:33.540Z,13.47
2019-05-21T07:10:50.420Z,14.87
2019-05-21T07:13:18.845Z,12.93
2019-05-21T07:15:47.230Z,13.37
2019-05-21T07:18:15.653Z,12.87
2019-05-21T07:20:44.055Z,10.67
2019-05-21T07:23:12.467Z,10.50
2019-05-21T07:25:40.905Z,9.50
2019-05-21T07:28:09.316Z,9.80
2019-05-21T07:30:37.719Z,10.00
2019-05-21T07:33:06.674Z,9.83
2019-05-21T07:35:35.468Z,10.67
2019-05-21T07:38:03.911Z,8.80
2019-05-21T07:40:32.348Z,9.80
2019-05-21T07:43:00.719Z,9.47
2019-05-21T07:45:29.133Z,8.83
2019-05-21T07:47:57.607Z,7.83
2019-05-21T07:50:25.998Z,8.10
2019-05-21T07:52:54.425Z,8.93
2019-05-21T07:55:22.880Z,8.17
2019-05-21T07:57:51.328Z,8.73
2019-05-21T08:00:19.713Z,8.73
2019-05-21T08:02:48.135Z,7.90
2019-05-21T08:05:16.531Z,6.97
2019-05-21T08:07:44.955Z,7.77
2019-05-21T08:10:13.363Z,8.17
2019-05-21T08:12:41.753Z,9.00
2019-05-21T08:15:10.172Z,7.80
2019-05-21T08:17:38.593Z,7.97
2019-05-21T08:20:11.070Z,8.10
2019-05-21T08:22:39.705Z,7.50
2019-05-21T08:25:08.161Z,8.33
2019-05-21T08:27:36.554Z,8.20
2019-05-21T08:30:05.548Z,7.40
2019-05-21T08:32:33.927Z,7.90
2019-05-21T08:35:02.575Z,7.27
2019-05-21T08:37:34.278Z,6.53
2019-05-21T08:40:02.877Z,6.10
2019-05-21T08:42:31.381Z,4.40
2019-05-21T08:45:00.012Z,5.93
2019-05-21T08:47:28.430Z,4.97
2019-05-21T08:49:56.848Z,5.20
2019-05-21T08:52:25.400Z,5.20
2019-05-21T08:54:56.468Z,5.30
2019-05-21T08:57:24.011Z,5.53
2019-05-21T08:59:52.426Z,6.10
2019-05-21T09:02:20.879Z,5.00
2019-05-21T09:04:49.398Z,6.20
2019-05-21T09:07:18.294Z,5.70
2019-05-21T09:09:50.995Z,5.50
2019-05-21T09:12:16.728Z,5.77
2019-05-21T09:14:45.099Z,6.67
2019-05-21T09:17:13.498Z,5.63
2019-05-21T09:19:42.125Z,5.60
2019-05-21T09:22:10.463Z,5.70
2019-05-21T09:24:38.968Z,5.70
2019-05-21T09:27:07.403Z,5.07
2019-05-21T09:29:35.836Z,5.77
2019-05-21T09:32:04.240Z,5.80
2019-05-21T09:34:47.397Z,5.50
2019-05-21T09:37:18.159Z,5.33
2019-05-21T09:39:32.770Z,5.43
2019-05-21T09:42:01.173Z,5.50
2019-05-21T09:44:29.607Z,5.10
2019-05-21T09:46:58.023Z,4.20
2019-05-21T09:49:26.501Z,5.23
2019-05-21T09:51:55.176Z,4.93
2019-05-21T09:54:23.563Z,5.33
2019-05-21T09:56:52.182Z,5.13
2019-05-21T09:59:25.013Z,5.10
2019-05-21T10:01:55.122Z,5.07
2019-05-21T10:04:23.553Z,5.13
2019-05-21T10:06:52.069Z,5.00
2019-05-21T10:09:21.177Z,5.80
2019-05-21T10:11:49.639Z,5.20
2019-05-21T10:14:18.062Z,5.43
2019-05-21T10:16:46.491Z,5.53
2019-05-21T10:19:14.886Z,5.90
2019-05-21T10:21:44.788Z,5.43
2019-05-21T10:24:14.547Z,5.27
2019-05-21T10:26:42.960Z,5.23
2019-05-21T10:29:11.360Z,5.60
2019-05-21T10:31:39.828Z,4.60
2019-05-21T10:34:08.219Z,4.60
2019-05-21T10:36:36.653Z,5.70
2019-05-21T10:39:06.911Z,5.73
2019-05-21T10:41:35.392Z,5.40
2019-05-21T10:44:03.794Z,5.90
2019-05-21T10:46:32.170Z,4.73
2019-05-21T10:49:00.583Z,5.20
2019-05-21T10:51:28.989Z,5.50
2019-05-21T10:53:57.491Z,5.40
2019-05-21T10:56:25.867Z,4.97
2019-05-21T10:58:54.289Z,5.53
2019-05-21T11:01:24.318Z,6.13
2019-05-21T11:04:10.707Z,5.80
2019-05-21T11:06:40.119Z,5.33
2019-05-21T11:09:10.170Z,6.03
2019-05-21T11:11:38.653Z,6.27
2019-05-21T11:14:07.104Z,6.30
2019-05-21T11:16:35.569Z,6.23
2019-05-21T11:19:03.884Z,5.70
2019-05-21T11:21:32.425Z,5.77
2019-05-21T11:24:00.903Z,6.03
2019-05-21T11:26:29.227Z,5.60
2019-05-21T11:28:57.634Z,5.50
2019-05-21T11:31:26.077Z,5.47
2019-05-21T11:33:54.494Z,5.83
2019-05-21T11:36:22.925Z,5.93
2019-05-21T11:38:51.473Z,5.57
2019-05-21T11:41:19.882Z,5.27
2019-05-21T11:43:48.457Z,4.50
2019-05-21T11:46:16.968Z,4.40
2019-05-21T11:48:45.374Z,4.60
2019-05-21T11:51:13.864Z,5.37
2019-05-21T11:53:42.276Z,5.73
2019-05-21T11:56:10.735Z,4.93
2019-05-21T11:58:39.970Z,5.70
2019-05-21T12:01:08.597Z,6.00
2019-05-21T12:03:36.994Z,5.20
2019-05-21T12:06:05.399Z,5.73
2019-05-21T12:08:33.785Z,5.93
2019-05-21T12:11:02.202Z,7.07
2019-05-21T12:13:30.645Z,6.40
2019-05-21T12:15:59.443Z,6.13
2019-05-21T12:18:27.785Z,6.90
2019-05-21T12:20:56.264Z,6.40
2019-05-21T12:23:24.788Z,6.33
2019-05-21T12:25:53.176Z,6.27
2019-05-21T12:28:21.686Z,6.63
2019-05-21T12:30:50.074Z,5.73
2019-05-21T12:33:18.479Z,6.17
2019-05-21T12:35:46.873Z,6.17
2019-05-21T12:38:15.469Z,6.97
2019-05-21T12:40:43.958Z,7.77
2019-05-21T12:43:12.342Z,6.87
2019-05-21T12:45:40.988Z,7.10
2019-05-21T12:48:09.457Z,6.03
2019-05-21T12:50:37.869Z,5.83
2019-05-21T12:53:06.330Z,6.83
2019-05-21T12:55:34.776Z,6.73
2019-05-21T12:58:03.173Z,6.33
2019-05-21T13:00:32.709Z,6.43
2019-05-21T13:03:01.085Z,5.73
2019-05-21T13:05:29.505Z,6.27
2019-05-21T13:07:58.070Z,6.47
2019-05-21T13:10:27.046Z,7.63
2019-05-21T13:12:58.428Z,6.83
2019-05-21T13:15:26.859Z,6.53
2019-05-21T13:17:55.597Z,6.70
2019-05-21T13:20:24.049Z,6.13
2019-05-21T13:22:52.529Z,6.10
2019-05-21T13:25:20.932Z,6.83
2019-05-21T13:27:49.337Z,7.00
2019-05-21T13:30:17.756Z,5.93
2019-05-21T13:32:46.139Z,7.60
2019-05-21T13:35:14.550Z,7.97
2019-05-21T13:37:43.944Z,7.10
2019-05-21T13:40:12.369Z,8.17
2019-05-21T13:42:40.758Z,6.00
2019-05-21T13:45:12.017Z,7.33
2019-05-21T13:47:40.407Z,6.80
2019-05-21T13:50:08.892Z,6.90
2019-05-21T13:52:38.973Z,7.77
2019-05-21T13:55:07.718Z,8.17
2019-05-21T13:57:36.093Z,6.93
2019-05-21T14:00:09.924Z,8.03
2019-05-21T14:02:38.642Z,8.00
2019-05-21T14:05:07.081Z,8.07
2019-05-21T14:07:35.578Z,8.27
2019-05-21T14:10:19.086Z,7.60
2019-05-21T14:12:37.427Z,6.80
2019-05-21T14:15:05.913Z,6.77
2019-05-21T14:17:34.367Z,7.27
2019-05-21T14:20:05.915Z,7.23
2019-05-21T14:22:36.566Z,7.13
2019-05-21T14:25:05.738Z,6.90
2019-05-21T14:27:43.816Z,7.40
2019-05-21T14:30:09.397Z,7.03
2019-05-21T14:32:37.902Z,6.80
2019-05-21T14:35:06.255Z,7.37
2019-05-21T14:37:34.671Z,6.80
2019-05-21T14:40:04.984Z,7.30
2019-05-21T14:42:33.388Z,7.27
2019-05-21T14:45:01.801Z,7.07
2019-05-21T14:47:30.212Z,6.70
2019-05-21T14:49:58.667Z,6.93
2019-05-21T14:52:27.075Z,8.07
2019-05-21T14:54:55.628Z,7.73
2019-05-21T14:57:24.034Z,8.10
2019-05-21T14:59:52.572Z,8.23
2019-05-21T15:02:21.039Z,7.00
2019-05-21T15:04:49.503Z,7.83
2019-05-21T15:07:18.050Z,7.73
2019-05-21T15:09:46.467Z,7.43
2019-05-21T15:12:14.847Z,7.13
2019-05-21T15:14:43.310Z,8.43
2019-05-21T15:17:11.818Z,7.50
2019-05-21T15:19:42.109Z,9.27
2019-05-21T15:22:10.801Z,7.97
2019-05-21T15:24:39.238Z,8.37
2019-05-21T15:27:08.184Z,7.67
2019-05-21T15:29:36.697Z,6.67
2019-05-21T15:32:05.191Z,7.60
2019-05-21T15:34:33.831Z,7.77
2019-05-21T15:37:02.486Z,8.17
2019-05-21T15:39:31.018Z,8.00
2019-05-21T15:41:59.429Z,8.10
2019-05-21T15:44:27.860Z,9.10
2019-05-21T15:46:56.258Z,8.97
2019-05-21T15:49:35.434Z,8.93
2019-05-21T15:51:54.856Z,9.00
2019-05-21T15:54:23.264Z,9.67
2019-05-21T15:56:51.672Z,8.60
2019-05-21T15:59:20.094Z,8.43
2019-05-21T16:01:48.524Z,7.53
2019-05-21T16:04:17.124Z,8.63
2019-05-21T16:06:45.632Z,6.43
2019-05-21T16:09:14.045Z,7.70
2019-05-21T16:11:42.464Z,7.63
2019-05-21T16:14:10.890Z,8.10
2019-05-21T16:16:39.274Z,7.87
2019-05-21T16:19:07.675Z,7.70
2019-05-21T16:21:36.066Z,8.30
2019-05-21T16:24:04.543Z,7.90
2019-05-21T16:26:32.928Z,7.93
2019-05-21T16:29:01.435Z,7.70
2019-05-21T16:31:29.898Z,8.13
2019-05-21T16:33:58.326Z,7.57
2019-05-21T16:36:26.773Z,8.73
2019-05-21T16:38:55.262Z,6.47
2019-05-21T16:41:24.759Z,7.57
2019-05-21T16:43:53.575Z,7.43
2019-05-21T16:46:21.999Z,8.07
2019-05-21T16:48:50.427Z,7.17
2019-05-21T16:51:18.935Z,5.87
2019-05-21T16:53:47.410Z,5.73
2019-05-21T16:56:15.970Z,5.37
2019-05-21T16:58:44.475Z,5.83
2019-05-21T17:01:13.969Z,5.07
2019-05-21T17:03:42.492Z,4.80
2019-05-21T17:06:10.880Z,5.90
2019-05-21T17:08:39.330Z,5.63
2019-05-21T17:11:07.805Z,5.33
2019-05-21T17:13:36.191Z,6.17
2019-05-21T17:16:05.331Z,6.23
2019-05-21T17:18:33.827Z,5.97
2019-05-21T17:21:02.545Z,5.90
2019-05-21T17:23:30.929Z,5.23
2019-05-21T17:25:59.404Z,5.47
2019-05-21T17:28:27.829Z,6.00
2019-05-21T17:30:56.256Z,5.77
2019-05-21T17:33:24.753Z,5.83
2019-05-21T17:35:53.280Z,5.50
2019-05-21T17:38:24.408Z,5.77
2019-05-21T17:40:51.826Z,6.53
2019-05-21T17:43:20.222Z,6.63
2019-05-21T17:45:48.604Z,7.13
2019-05-21T17:48:17.040Z,6.43
2019-05-21T17:50:45.547Z,6.97
2019-05-21T17:53:13.941Z,6.63
2019-05-21T17:55:42.352Z,7.70
2019-05-21T17:58:10.838Z,8.40
2019-05-21T18:00:58.605Z,7.10
2019-05-21T18:03:27.431Z,6.13
2019-05-21T18:05:56.074Z,5.80
2019-05-21T18:08:24.880Z,5.67
2019-05-21T18:10:54.010Z,5.23
2019-05-21T18:13:22.867Z,5.03
2019-05-21T18:15:51.264Z,5.63
2019-05-21T18:18:19.959Z,5.83
2019-05-21T18:20:48.631Z,5.33
2019-05-21T18:23:17.094Z,5.80
2019-05-21T18:25:47.256Z,6.83
2019-05-21T18:28:15.795Z,6.60
2019-05-21T18:30:44.389Z,7.03
2019-05-21T18:33:12.935Z,7.33
2019-05-21T18:35:41.304Z,7.53
2019-05-21T18:38:15.595Z,7.40
2019-05-21T18:40:44.182Z,7.83
2019-05-21T18:43:12.644Z,6.80
2019-05-21T18:45:41.150Z,7.43
2019-05-21T18:48:09.530Z,7.47
2019-05-21T18:50:37.999Z,7.77
2019-05-21T18:53:08.196Z,7.53
2019-05-21T18:55:36.601Z,9.10
2019-05-21T18:58:05.024Z,9.23
2019-05-21T19:00:33.594Z,10.47
2019-05-21T19:03:02.032Z,11.17
2019-05-21T19:05:30.438Z,11.00
2019-05-21T19:07:58.854Z,11.23
2019-05-21T19:10:27.255Z,11.33
2019-05-21T19:12:55.669Z,11.17
2019-05-21T19:15:24.064Z,10.90
2019-05-21T19:17:52.518Z,10.70
2019-05-21T19:20:20.867Z,9.93
2019-05-21T19:22:49.290Z,12.00
2019-05-21T19:25:17.690Z,11.20
2019-05-21T19:27:46.116Z,11.37
2019-05-21T19:30:14.804Z,11.60
2019-05-21T19:32:43.228Z,11.60
2019-05-21T19:35:11.644Z,11.40
2019-05-21T19:37:40.119Z,10.53
2019-05-21T19:40:08.514Z,11.30
2019-05-21T19:42:36.955Z,12.83
2019-05-21T19:45:06.739Z,10.87
2019-05-21T19:47:35.148Z,11.17
2019-05-21T19:50:05.336Z,11.13
2019-05-21T19:52:33.836Z,10.77
2019-05-21T19:55:02.304Z,11.17
2019-05-21T19:57:30.981Z,9.67
2019-05-21T19:59:59.543Z,9.87
2019-05-21T20:02:29.583Z,8.83
2019-05-21T20:04:59.057Z,8.40
2019-05-21T20:07:27.921Z,8.87
2019-05-21T20:09:56.392Z,9.60
2019-05-21T20:12:24.802Z,8.77
2019-05-21T20:14:53.337Z,9.17
2019-05-21T20:17:22.492Z,8.77
2019-05-21T20:19:51.970Z,8.10
2019-05-21T20:22:20.728Z,8.07
2019-05-21T20:24:49.135Z,8.07
2019-05-21T20:27:17.579Z,9.00
2019-05-21T20:29:46.198Z,8.97
2019-05-21T20:32:16.228Z,9.50
2019-05-21T20:34:45.042Z,9.17
2019-05-21T20:37:17.963Z,9.33
2019-05-21T20:39:56.188Z,8.50
2019-05-21T20:42:25.260Z,7.93
2019-05-21T20:44:53.643Z,9.17
2019-05-21T20:47:23.781Z,8.93
2019-05-21T20:49:52.795Z,9.73
2019-05-21T20:52:21.200Z,9.67
2019-05-21T20:54:50.486Z,11.07
2019-05-21T20:57:18.914Z,8.97
2019-05-21T20:59:47.294Z,9.90
2019-05-21T21:02:24.532Z,9.97
2019-05-21T21:04:52.983Z,9.43
2019-05-21T21:07:21.345Z,9.50
2019-05-21T21:09:49.836Z,9.03
2019-05-21T21:12:18.684Z,10.20
2019-05-21T21:14:48.777Z,9.13
2019-05-21T21:17:17.703Z,9.80
2019-05-21T21:19:46.134Z,9.60
2019-05-21T21:22:14.834Z,10.87
2019-05-21T21:24:43.222Z,9.57
2019-05-21T21:27:11.698Z,8.17
2019-05-21T21:29:40.120Z,9.70
2019-05-21T21:32:08.638Z,9.73
2019-05-21T21:34:37.071Z,8.97
2019-05-21T21:37:05.756Z,9.20
2019-05-21T21:39:34.354Z,8.93
2019-05-21T21:42:02.809Z,8.80
2019-05-21T21:44:33.972Z,8.40
2019-05-21T21:47:01.457Z,8.50
2019-05-21T21:49:31.207Z,8.60
2019-05-21T21:51:59.835Z,8.17
2019-05-21T21:54:28.855Z,7.53
2019-05-21T21:56:57.204Z,7.97
2019-05-21T21:59:25.602Z,8.40
2019-05-21T22:01:56.727Z,7.80
2019-05-21T22:04:28.127Z,6.93
2019-05-21T22:06:56.923Z,6.73
2019-05-21T22:09:27.071Z,7.53
2019-05-21T22:11:55.625Z,7.07
2019-05-21T22:14:24.574Z,6.90
2019-05-21T22:16:53.044Z,7.17
2019-05-21T22:19:22.651Z,5.13
2019-05-21T22:21:51.547Z,5.70
2019-05-21T22:24:20.109Z,6.90
2019-05-21T22:26:49.515Z,7.10
2019-05-21T22:29:17.995Z,7.77
2019-05-21T22:31:46.524Z,7.57
2019-05-21T22:34:15.021Z,7.17
2019-05-21T22:36:43.416Z,7.63
2019-05-21T22:39:13.456Z,7.50
2019-05-21T22:41:41.826Z,7.13
2019-05-21T22:44:10.269Z,8.33
2019-05-21T22:46:38.658Z,7.87
2019-05-21T22:49:07.068Z,8.30
2019-05-21T22:51:35.470Z,7.53
2019-05-21T22:54:03.861Z,8.57
2019-05-21T22:56:32.365Z,9.27
2019-05-21T22:59:00.701Z,7.93
2019-05-21T23:01:30.408Z,8.53
2019-05-21T23:03:59.094Z,9.10
2019-05-21T23:06:27.504Z,9.30
2019-05-21T23:08:56.078Z,8.77
2019-05-21T23:11:24.564Z,6.63
2019-05-21T23:13:52.949Z,7.90
2019-05-21T23:16:21.331Z,7.07
2019-05-21T23:18:49.728Z,7.77
2019-05-21T23:21:19.419Z,8.67
2019-05-21T23:23:49.508Z,8.83
2019-05-21T23:26:18.353Z,9.17
2019-05-21T23:28:49.695Z,9.23
2019-05-21T23:31:19.061Z,7.60
2019-05-21T23:33:48.889Z,7.53
2019-05-21T23:36:18.524Z,8.90
2019-05-21T23:38:47.906Z,8.73
2019-05-21T23:41:19.196Z,7.33
2019-05-21T23:43:49.609Z,7.60
2019-05-21T23:46:18.083Z,6.03
2019-05-21T23:48:46.548Z,6.27
2019-05-21T23:51:14.933Z,6.60
2019-05-21T23:53:43.339Z,6.20
2019-05-21T23:56:11.750Z,6.27
2019-05-21T23:58:40.200Z,6.37
